ADDS TAF Board INFO
 
 

IDs: Format: Expanded Condensed

KMEM - Memphis Intl, TN, US

Issued at 0858 UTC 25 Jul 2014
Time0954Z25/11Z25/12Z25/13Z25/14Z25/15Z25/16Z25/17Z25/18Z25/19Z25/20Z25/21Z25/22Z25/23Z
TypeOBSPRVLPRVLPRVLPRVLPRVLPRVLPRVLPRVLPRVLPRVLPRVLPRVLPRVL
Vis10>6>6>6>6>6>6>6>6>6>6>6>6>6
Cig----------------------------
CoverCLRSKCSKCSKCSKCSCTSCTSCTSCTSCTSCTSCTSCTSCT
FltCat--VFRVFRVFRVFRVFRVFRVFRVFRVFRVFRVFRVFRVFR
Wx----------------------------
WDirVRBVRBVRBVRBVRB707070707070707070
WSpd00000555555555
WGst----------------------------
R09/27
XWndVRBVRBVRBVRBVRB222222222
HWndVRBVRBVRBVRBVRB555555555
R18/36
XWndVRBVRBVRBVRBVRB555555555
HWndVRBVRBVRBVRBVRB-2-2-2-2-2-2-2-2-2
Raw TAF
KMEM 250858Z 2509/2606 00000KT P6SM SKC
  FM251500 07005KT P6SM SCT250
  FM260000 16004KT P6SM FEW150 SCT250


Raw METAR
KMEM 250954Z 00000KT 10SM CLR 19/16 A3002 RMK AO2 SLP163 T01940156

TAF Board Legend

Hazard Green Yellow Red Magenta
Visibility (sm) >5 >2.99 >0.99 <=0.99
Ceiling (100 ft) >30 >9.99 >4.99 <=4.99
Wind Speed (kt) <10 <20 <30 >=30
Wind Gust (kt) <10 <20 <30 >=30
Weather No Wx Reported Light precipitation Moderate precipitation Heavy precipitation
Flight Category VFR MVFR IFR LIFR

Page loaded:  10:20 UTC  |   03:20 AM Pacific  |   04:20 AM Mountain  |   05:20 AM Central  |   06:20 AM Eastern

 

ADVISORIES

FORECASTS

FORECASTS

OBSERVATIONS

USER TOOLS

ABOUT US